Time;durP1;ratioP1;P1;durP2;ratioP2;P2;SDS_P1;SDS_P2;PMS_P1;PMS_P2;Temp;Humidity;BMP_temperature;BMP_pressure;BME280_temperature;BME280_humidity;BME280_pressure;Samples;Min_cycle;Max_cycle;Signal;HPM_P1;HPM_P2
2022/01/22 00:00:14;;;;;;;0.10;0.10;;;;;;;9.12;61.08;103510.69;5053982;28;20446;-86
2022/01/22 00:02:41;;;;;;;0.30;0.30;;;;;;;9.11;61.44;103506.25;5055674;28;20032;-87
2022/01/22 00:05:10;;;;;;;0.10;0.10;;;;;;;9.03;61.76;103498.09;5043099;28;20026;-86
2022/01/22 00:07:36;;;;;;;0.10;0.10;;;;;;;9.03;61.51;103500.75;5038159;28;20064;-86
2022/01/22 00:10:13;;;;;;;0.22;0.22;;;;;;;9.09;61.94;103510.63;5041401;28;20025;-86
2022/01/22 00:13:06;;;;;;;0.10;0.10;;;;;;;9.09;61.61;103502.69;5039839;28;20187;-86
2022/01/22 00:15:29;;;;;;;0.10;0.10;;;;;;;9.13;61.41;103494.84;5041496;28;20038;-87
2022/01/22 00:17:56;;;;;;;0.65;0.65;;;;;;;9.15;61.37;103490.53;5045159;28;20030;-87
2022/01/22 00:20:27;;;;;;;0.13;0.13;;;;;;;9.19;61.97;103484.44;5042645;28;20021;-88
2022/01/22 00:22:54;;;;;;;0.10;0.10;;;;;;;9.12;62.12;103486.88;5040665;28;20032;-87
2022/01/22 00:25:21;;;;;;;0.10;0.10;;;;;;;9.05;62.14;103489.34;5042916;28;20028;-86
2022/01/22 00:27:49;;;;;;;0.10;0.10;;;;;;;9.04;62.13;103474.34;5040608;28;20025;-86
2022/01/22 00:30:19;;;;;;;0.10;0.10;;;;;;;9.13;62.15;103478.09;5039662;28;20037;-86
2022/01/22 00:32:45;;;;;;;0.10;0.10;;;;;;;9.08;62.55;103480.59;5039362;28;20032;-86
2022/01/22 00:35:13;;;;;;;0.43;0.43;;;;;;;9.15;62.47;103474.66;5042086;28;20025;-86
2022/01/22 00:37:41;;;;;;;0.10;0.10;;;;;;;9.09;62.63;103478.88;5039621;28;20027;-86
2022/01/22 00:40:10;;;;;;;0.10;0.10;;;;;;;9.12;62.11;103477.22;5037105;28;20028;-87
2022/01/22 00:42:37;;;;;;;0.10;0.10;;;;;;;9.10;62.58;103475.34;5035300;28;20120;-86
2022/01/22 00:45:04;;;;;;;0.10;0.10;;;;;;;9.07;62.60;103473.53;5037154;28;20136;-86
2022/01/22 00:47:30;;;;;;;0.10;0.10;;;;;;;9.09;62.65;103476.22;5038545;28;20037;-86
2022/01/22 00:49:57;;;;;;;0.10;0.10;;;;;;;9.06;63.44;103466.47;5039624;28;20034;-86
2022/01/22 00:52:24;;;;;;;0.13;0.13;;;;;;;9.06;62.66;103466.47;5039550;28;20093;-85
2022/01/22 00:54:50;;;;;;;0.57;0.57;;;;;;;9.09;62.69;103470.94;5037075;28;20484;-86
2022/01/22 00:57:17;;;;;;;0.10;0.10;;;;;;;9.11;63.21;103471.88;5036669;28;20041;-86
2022/01/22 00:59:43;;;;;;;0.15;0.15;;;;;;;9.05;63.46;103468.19;5040439;28;20028;-86
2022/01/22 01:02:09;;;;;;;0.10;0.10;;;;;;;9.09;63.60;103468.31;5039234;28;20028;-86
2022/01/22 01:04:37;;;;;;;0.10;0.10;;;;;;;9.13;63.34;103475.47;5039171;28;20538;-86
2022/01/22 01:07:04;;;;;;;0.10;0.10;;;;;;;9.10;63.86;103470.06;5040938;28;20082;-86
2022/01/22 01:09:31;;;;;;;0.10;0.10;;;;;;;9.19;62.69;103476.50;5040051;28;20034;-86
2022/01/22 01:12:02;;;;;;;0.57;0.57;;;;;;;9.18;63.25;103468.53;5040770;28;20064;-86
2022/01/22 01:14:37;;;;;;;0.10;0.10;;;;;;;9.21;63.56;103458.06;5038740;28;20045;-86
2022/01/22 01:33:58;;;;;;;0.10;0.10;;;;;;;9.33;63.45;103469.00;5045336;28;20162;-84
2022/01/22 01:36:24;;;;;;;0.15;0.15;;;;;;;9.34;63.02;103470.75;5043304;28;20491;-84
2022/01/22 01:38:56;;;;;;;0.10;0.10;;;;;;;9.33;63.49;103469.00;5040611;28;20029;-85
2022/01/22 01:41:32;;;;;;;0.10;0.10;;;;;;;9.38;63.23;103471.72;5042999;28;20166;-85
2022/01/22 01:43:58;;;;;;;0.43;0.43;;;;;;;9.38;63.17;103477.94;5044417;28;20025;-85
2022/01/22 01:46:29;;;;;;;0.13;0.13;;;;;;;9.41;62.89;103471.84;5045988;28;20041;-84
2022/01/22 01:48:55;;;;;;;0.10;0.10;;;;;;;9.43;63.32;103477.16;5043816;28;20036;-84
2022/01/22 01:51:24;;;;;;;0.10;0.10;;;;;;;9.43;62.79;103477.16;5045686;28;20346;-84
2022/01/22 01:54:01;;;;;;;0.10;0.10;;;;;;;9.39;63.28;103474.44;5043728;28;20025;-84
2022/01/22 01:59:16;;;;;;;0.10;0.10;;;;;;;9.48;63.24;103480.81;5040355;28;20045;-85
2022/01/22 02:01:43;;;;;;;0.10;0.10;;;;;;;9.48;63.17;103486.13;5043369;28;20043;-86
2022/01/22 02:04:12;;;;;;;0.10;0.10;;;;;;;9.51;63.20;103472.97;5040717;28;20036;-85
2022/01/22 02:06:39;;;;;;;0.22;0.22;;;;;;;9.49;62.95;103480.84;5044481;28;20041;-85
2022/01/22 02:09:08;;;;;;;0.10;0.10;;;;;;;9.51;62.76;103478.28;5046096;28;20033;-86
2022/01/22 02:11:35;;;;;;;0.10;0.10;;;;;;;9.52;63.31;103472.09;5042820;28;20503;-84
2022/01/22 02:23:30;;;;;;;0.10;0.10;;;;;;;9.52;62.58;103480.97;5040668;28;20033;-85
2022/01/22 02:25:09;;;;;;;0.10;0.10;;;;;;;9.55;63.23;103472.19;5031058;28;20041;-85
2022/01/22 02:27:35;;;;;;;0.05;0.05;;;;;;;9.51;63.18;103467.69;5037728;28;20026;-84
2022/01/22 02:30:05;;;;;;;0.10;0.10;;;;;;;9.55;63.00;103465.16;5025662;28;20370;-84
2022/01/22 02:33:12;;;;;;;0.10;0.10;;;;;;;9.49;63.08;103466.75;5022469;28;20029;-84
2022/01/22 02:35:27;;;;;;;0.10;0.10;;;;;;;9.59;62.91;103470.53;5015897;28;20041;-86
2022/01/22 02:38:00;;;;;;;0.10;0.10;;;;;;;9.57;63.11;103478.44;5026282;28;20438;-86
2022/01/22 02:40:30;;;;;;;0.10;0.10;;;;;;;9.56;62.83;103471.34;5031398;28;20026;-86
2022/01/22 02:42:59;;;;;;;0.10;0.10;;;;;;;9.58;63.18;103466.97;5026242;28;20436;-85
2022/01/22 02:45:25;;;;;;;0.80;0.80;;;;;;;9.55;63.13;103462.50;5024195;28;20034;-86
2022/01/22 02:47:53;;;;;;;0.10;0.10;;;;;;;9.53;63.45;103465.97;5025495;28;20053;-86
2022/01/22 02:50:20;;;;;;;0.10;0.10;;;;;;;9.51;63.36;103470.34;5032027;28;20029;-86
2022/01/22 02:52:46;;;;;;;0.10;0.10;;;;;;;9.44;63.27;103476.31;5026474;28;20053;-86
2022/01/22 02:55:13;;;;;;;0.10;0.10;;;;;;;9.44;63.93;103476.31;5024212;28;20029;-86
2022/01/22 02:57:42;;;;;;;0.10;0.10;;;;;;;9.45;63.76;103470.19;5025252;28;20060;-85
2022/01/22 03:00:13;;;;;;;0.10;0.10;;;;;;;9.38;64.53;103472.66;5025415;28;20035;-86
2022/01/22 03:02:39;;;;;;;0.10;0.10;;;;;;;9.38;64.27;103472.66;5032947;28;20476;-85
2022/01/22 03:05:07;;;;;;;0.10;0.10;;;;;;;9.44;64.36;103481.59;5020049;28;20079;-86
2022/01/22 03:07:35;;;;;;;0.10;0.10;;;;;;;9.48;63.70;103478.19;5035998;28;20083;-85
2022/01/22 03:10:04;;;;;;;1.27;1.27;;;;;;;9.41;63.85;103479.78;5028964;28;20045;-86
2022/01/22 03:12:49;;;;;;;0.77;0.73;;;;;;;9.43;64.05;103483.34;5026180;28;20511;-85
2022/01/22 03:18:10;;;;;;;1.20;1.20;;;;;;;9.41;64.61;103478.84;5027450;28;20045;-85
2022/01/22 03:29:12;;;;;;;0.10;0.10;;;;;;;9.33;65.35;103479.56;5087973;28;20028;-85
2022/01/22 03:31:40;;;;;;;0.00;0.00;;;;;;;9.36;64.81;103482.28;5085367;28;20382;-85
2022/01/22 03:34:07;;;;;;;0.10;0.10;;;;;;;9.35;65.30;103480.50;5070843;28;20111;-85
2022/01/22 03:36:34;;;;;;;0.10;0.10;;;;;;;9.35;65.51;103485.78;5076778;28;20441;-85
2022/01/22 03:39:03;;;;;;;0.10;0.10;;;;;;;9.37;65.76;103488.47;5085393;28;20032;-85
2022/01/22 03:41:30;;;;;;;0.10;0.10;;;;;;;9.36;65.56;103486.69;5078383;28;20036;-86
2022/01/22 03:43:56;;;;;;;0.10;0.10;;;;;;;9.37;65.54;103480.53;5079380;28;20080;-85
2022/01/22 03:46:23;;;;;;;0.10;0.10;;;;;;;9.39;65.34;103485.03;5072626;28;20495;-85
2022/01/22 03:48:50;;;;;;;0.10;0.10;;;;;;;9.39;65.47;103479.75;5077540;28;20544;-86
2022/01/22 03:51:16;;;;;;;0.10;0.10;;;;;;;9.44;65.21;103481.59;5085521;28;20029;-86
2022/01/22 03:53:43;;;;;;;0.10;0.10;;;;;;;9.45;65.59;103486.94;5085395;28;20016;-86
2022/01/22 03:56:10;;;;;;;0.20;0.20;;;;;;;9.45;65.22;103484.28;5082198;28;20029;-85
2022/01/22 03:58:40;;;;;;;0.10;0.10;;;;;;;9.51;65.47;103480.94;5065451;28;20036;-85
2022/01/22 04:01:50;;;;;;;0.10;0.10;;;;;;;9.52;64.84;103480.97;5069166;28;20051;-85
2022/01/22 04:03:59;;;;;;;0.08;0.08;;;;;;;9.53;65.64;103487.13;5069550;28;20037;-85
2022/01/22 04:07:01;;;;;;;0.10;0.10;;;;;;;9.56;65.85;103479.28;5083810;28;20074;-85
2022/01/22 04:09:16;;;;;;;0.10;0.10;;;;;;;9.59;65.63;103478.47;5076841;28;20083;-85
2022/01/22 04:11:43;;;;;;;0.10;0.10;;;;;;;9.60;65.47;103480.28;5076260;28;20396;-86
2022/01/22 04:14:19;;;;;;;0.10;0.10;;;;;;;9.58;65.63;103474.91;5070497;28;20172;-86
2022/01/22 04:17:21;;;;;;;0.00;0.00;;;;;;;9.59;64.87;103486.41;5080454;28;20127;-86
2022/01/22 04:25:06;;;;;;;0.10;0.10;;;;;;;9.51;66.04;103489.75;5081310;28;20036;-85
2022/01/22 04:27:33;;;;;;;0.10;0.10;;;;;;;9.48;65.82;103488.75;5078938;28;20471;-85
2022/01/22 04:29:59;;;;;;;0.20;0.20;;;;;;;9.46;65.75;103478.16;5077253;28;20383;-85
2022/01/22 04:32:28;;;;;;;0.10;0.10;;;;;;;9.56;65.63;103476.66;5080345;28;20035;-85
2022/01/22 04:34:55;;;;;;;0.10;0.10;;;;;;;9.58;65.33;103480.22;5070802;28;20041;-86
2022/01/22 04:37:23;;;;;;;0.10;0.10;;;;;;;9.61;65.44;103485.59;5061622;28;20503;-85
2022/01/22 04:39:50;;;;;;;0.10;0.10;;;;;;;9.64;65.13;103480.38;5059642;28;20032;-85
2022/01/22 04:42:18;;;;;;;0.03;0.03;;;;;;;9.62;65.16;103481.19;5074844;28;20040;-85
2022/01/22 04:44:59;;;;;;;0.10;0.10;;;;;;;9.62;64.95;103482.09;5070482;28;20033;-86
2022/01/22 04:47:34;;;;;;;0.10;0.10;;;;;;;9.63;64.76;103478.59;5055862;28;20021;-84
2022/01/22 04:55:33;;;;;;;0.10;0.10;;;;;;;9.66;64.36;103470.72;5073008;28;20045;-84
2022/01/22 04:58:03;;;;;;;0.10;0.10;;;;;;;9.67;64.46;103468.97;5071025;28;20029;-84
2022/01/22 05:00:31;;;;;;;0.10;0.10;;;;;;;9.67;64.72;103472.53;5060062;28;20029;-85
2022/01/22 05:02:59;;;;;;;0.13;0.13;;;;;;;9.66;64.76;103476.03;5050710;28;20033;-85
2022/01/22 05:05:26;;;;;;;0.10;0.10;;;;;;;9.75;64.44;103477.13;5065294;28;20029;-85
2022/01/22 05:07:52;;;;;;;0.10;0.10;;;;;;;9.70;64.45;103472.59;5067230;28;20083;-85
2022/01/22 05:10:19;;;;;;;0.10;0.10;;;;;;;9.75;64.63;103477.13;5060598;28;20033;-85
2022/01/22 05:12:46;;;;;;;0.10;0.10;;;;;;;9.79;64.31;103468.41;5064273;28;20025;-85
2022/01/22 05:15:12;;;;;;;0.10;0.10;;;;;;;9.78;64.35;103471.91;5055615;28;20071;-85
2022/01/22 05:17:40;;;;;;;0.10;0.10;;;;;;;9.76;64.62;103473.59;5066335;28;20036;-85
2022/01/22 05:20:13;;;;;;;0.10;0.10;;;;;;;9.78;64.53;103471.91;5065697;28;20024;-85
2022/01/22 05:25:32;;;;;;;0.10;0.10;;;;;;;9.82;64.47;103472.03;5066371;28;20430;-84
2022/01/22 05:28:15;;;;;;;0.10;0.10;;;;;;;9.78;64.52;103467.53;5059065;28;20103;-84
2022/01/22 05:38:53;;;;;;;0.10;0.10;;;;;;;9.84;64.07;103477.34;5049248;28;20106;-84
2022/01/22 05:41:19;;;;;;;0.10;0.10;;;;;;;9.87;64.15;103474.81;5049885;28;20036;-85
2022/01/22 05:43:46;;;;;;;0.10;0.10;;;;;;;9.88;64.24;103479.22;5046300;28;20124;-84
2022/01/22 05:46:12;;;;;;;0.10;0.10;;;;;;;9.80;64.61;103480.78;5045438;28;20041;-85
2022/01/22 05:48:38;;;;;;;0.10;0.10;;;;;;;9.83;64.26;103480.84;5041687;28;20029;-84
2022/01/22 05:51:05;;;;;;;0.10;0.10;;;;;;;9.83;64.26;103481.75;5047653;28;20099;-84
2022/01/22 05:53:43;;;;;;;0.10;0.10;;;;;;;9.82;64.47;103484.34;5040775;28;20083;-85
2022/01/22 06:01:44;;;;;;;0.10;0.10;;;;;;;9.76;64.48;103486.84;5059884;28;20049;-84
2022/01/22 06:04:10;;;;;;;0.10;0.10;;;;;;;9.78;64.60;103496.66;5054999;28;20075;-85
2022/01/22 06:06:36;;;;;;;0.35;0.35;;;;;;;9.76;64.65;103495.69;5061162;28;20047;-84
2022/01/22 06:09:07;;;;;;;0.10;0.10;;;;;;;9.79;64.46;103489.59;5064127;28;20067;-85
2022/01/22 06:11:40;;;;;;;0.10;0.10;;;;;;;9.78;64.31;103494.00;5064746;28;20030;-85
2022/01/22 06:14:06;;;;;;;0.10;0.10;;;;;;;9.79;64.34;103498.41;5061804;28;20559;-85
2022/01/22 06:16:33;;;;;;;0.10;0.10;;;;;;;9.84;64.57;103493.25;5064776;28;20506;-85
2022/01/22 06:18:59;;;;;;;0.10;0.10;;;;;;;9.82;64.70;103494.94;5063575;28;20071;-85
2022/01/22 06:21:25;;;;;;;0.10;0.10;;;;;;;9.82;64.23;103497.59;5065712;28;20033;-84
2022/01/22 06:23:51;;;;;;;0.10;0.10;;;;;;;9.82;64.00;103500.25;5057952;28;20160;-85
2022/01/22 06:26:17;;;;;;;0.25;0.25;;;;;;;9.77;64.30;103502.78;5059794;28;20029;-85
2022/01/22 06:28:43;;;;;;;0.10;0.10;;;;;;;9.80;64.17;103499.31;5067388;28;20033;-85
2022/01/22 06:31:11;;;;;;;0.10;0.10;;;;;;;9.80;64.14;103502.84;5058825;28;20030;-84
2022/01/22 06:33:37;;;;;;;0.10;0.10;;;;;;;9.79;63.80;103505.47;5059247;28;20025;-85
2022/01/22 06:36:04;;;;;;;0.10;0.10;;;;;;;9.76;63.62;103501.00;5066991;28;20410;-85
2022/01/22 06:38:30;;;;;;;0.10;0.10;;;;;;;9.82;63.60;103510.81;5058015;28;20037;-85
2022/01/22 06:43:45;;;;;;;0.10;0.10;;;;;;;9.87;63.57;103512.75;5064490;28;20040;-85
2022/01/22 06:46:11;;;;;;;0.10;0.10;;;;;;;9.79;63.61;103510.75;5059446;28;20056;-85
2022/01/22 06:48:37;;;;;;;0.00;0.00;;;;;;;9.86;63.50;103513.59;5057459;28;20033;-85
2022/01/22 06:51:03;;;;;;;0.10;0.10;;;;;;;9.83;63.74;103517.94;5060600;28;20059;-85
2022/01/22 06:53:29;;;;;;;0.32;0.32;;;;;;;9.89;63.85;103518.09;5059404;28;20022;-85
2022/01/22 06:55:59;;;;;;;0.10;0.10;;;;;;;9.89;63.58;103518.09;5062471;28;20091;-85
2022/01/22 06:58:26;;;;;;;0.10;0.10;;;;;;;9.89;63.55;103518.09;5058415;28;20028;-85
2022/01/22 07:00:52;;;;;;;0.10;0.10;;;;;;;9.90;63.50;103527.81;5063380;28;20028;-85
2022/01/22 07:03:18;;;;;;;0.10;0.10;;;;;;;9.85;63.77;103526.81;5063233;28;20464;-86
2022/01/22 07:05:45;;;;;;;0.10;0.10;;;;;;;9.88;63.49;103529.53;5062209;28;20128;-85
2022/01/22 07:08:11;;;;;;;0.10;0.10;;;;;;;9.93;63.84;103529.66;5061091;28;20033;-85
2022/01/22 07:10:37;;;;;;;0.10;0.10;;;;;;;9.90;63.99;103530.47;5051468;28;20086;-85
2022/01/22 07:13:03;;;;;;;0.10;0.10;;;;;;;9.87;63.99;103525.13;5043650;28;20033;-84
2022/01/22 07:15:30;;;;;;;0.10;0.10;;;;;;;9.92;63.94;103531.41;5039462;28;20396;-85
2022/01/22 07:17:56;;;;;;;0.20;0.20;;;;;;;9.90;63.84;103533.13;5049254;28;20116;-85
2022/01/22 07:20:29;;;;;;;0.57;0.57;;;;;;;9.86;63.97;103528.63;5047359;28;20044;-86
2022/01/22 07:25:40;;;;;;;0.03;0.03;;;;;;;9.90;63.89;103530.47;5060974;27;20839;-85
2022/01/22 07:28:10;;;;;;;0.10;0.10;;;;;;;9.94;63.77;103531.44;5065440;28;20078;-86
2022/01/22 07:30:37;;;;;;;0.10;0.10;;;;;;;9.92;63.94;103533.16;5059448;28;20065;-87
2022/01/22 07:33:05;;;;;;;0.10;0.10;;;;;;;9.93;63.97;103532.31;5062800;28;20031;-85
2022/01/22 07:35:35;;;;;;;0.10;0.10;;;;;;;9.90;63.85;103535.78;5056615;28;20094;-85
2022/01/22 07:38:02;;;;;;;1.08;1.08;;;;;;;9.85;63.73;103533.00;5065868;28;20033;-84
2022/01/22 07:40:29;;;;;;;2.08;1.95;;;;;;;9.87;63.52;103525.13;5059984;28;20028;-85
2022/01/22 07:42:55;;;;;;;0.20;0.20;;;;;;;9.85;63.73;103521.53;5061090;28;20033;-81
2022/01/22 07:45:22;;;;;;;0.10;0.10;;;;;;;9.94;63.66;103521.75;5061228;28;20059;-84
2022/01/22 07:47:49;;;;;;;0.45;0.45;;;;;;;9.94;63.86;103524.38;5065034;28;20037;-84
2022/01/22 07:50:15;;;;;;;0.10;0.10;;;;;;;9.95;63.42;103523.53;5061110;28;20029;-84
2022/01/22 07:52:41;;;;;;;0.10;0.10;;;;;;;9.95;63.45;103518.25;5060067;28;20029;-85
2022/01/22 07:55:08;;;;;;;0.10;0.10;;;;;;;9.98;63.48;103518.34;5063133;28;20036;-85
2022/01/22 07:57:49;;;;;;;0.10;0.10;;;;;;;10.07;63.34;103522.06;5063003;28;20025;-85
2022/01/22 08:00:16;;;;;;;0.73;0.73;;;;;;;10.00;63.61;103521.00;5058829;28;20036;-85
2022/01/22 08:02:43;;;;;;;0.10;0.10;;;;;;;10.02;63.67;103520.19;5059702;28;20450;-85
2022/01/22 08:05:10;;;;;;;0.10;0.10;;;;;;;9.98;63.38;103515.69;5061465;28;20549;-85
2022/01/22 08:07:36;;;;;;;0.10;0.10;;;;;;;10.03;63.44;103511.41;5064840;28;20068;-85
2022/01/22 08:10:08;;;;;;;0.10;0.10;;;;;;;9.98;63.39;103512.13;5067234;28;20063;-87
2022/01/22 08:12:37;;;;;;;0.10;0.10;;;;;;;10.01;63.65;103512.22;5068038;28;20041;-85
2022/01/22 08:15:05;;;;;;;0.10;0.10;;;;;;;10.01;63.42;103515.75;5067482;28;20487;-85
2022/01/22 08:17:32;;;;;;;0.10;0.10;;;;;;;10.10;63.35;103511.56;5064726;28;20025;-86
2022/01/22 08:19:58;;;;;;;0.10;0.10;;;;;;;10.08;63.42;103513.25;5068045;28;20016;-85
2022/01/22 08:22:24;;;;;;;0.10;0.10;;;;;;;10.12;63.55;103510.72;5066915;28;20036;-86
2022/01/22 08:24:53;;;;;;;0.10;0.10;;;;;;;10.10;63.41;103516.84;5067846;28;20115;-86
2022/01/22 08:27:35;;;;;;;0.10;0.10;;;;;;;10.03;64.00;103522.00;5066594;28;20143;-86
2022/01/22 08:30:02;;;;;;;0.32;0.32;;;;;;;10.11;63.39;103526.59;5066140;28;20024;-86
2022/01/22 08:37:58;;;;;;;0.15;0.15;;;;;;;10.10;63.80;103532.75;5035948;28;20042;-84
2022/01/22 08:40:24;;;;;;;0.10;0.10;;;;;;;10.07;63.73;103533.56;5028162;28;20103;-85
2022/01/22 08:42:50;;;;;;;0.10;0.10;;;;;;;10.09;63.80;103528.31;5028577;28;20037;-85
2022/01/22 08:45:16;;;;;;;0.10;0.10;;;;;;;10.11;63.61;103529.25;5028840;28;20080;-86
2022/01/22 08:47:42;;;;;;;0.10;0.10;;;;;;;10.10;63.61;103530.09;5029296;28;20038;-86
2022/01/22 08:50:09;;;;;;;0.10;0.10;;;;;;;10.09;63.06;103536.25;5028735;28;20061;-84
2022/01/22 08:52:36;;;;;;;0.10;0.10;;;;;;;10.14;63.42;103529.31;5029347;28;20385;-85
2022/01/22 08:55:06;;;;;;;0.10;0.10;;;;;;;10.24;63.35;103533.97;5028703;28;20044;-84
2022/01/22 08:57:32;;;;;;;0.10;0.10;;;;;;;10.24;63.25;103533.09;5026699;28;20091;-85
2022/01/22 08:59:58;;;;;;;0.10;0.10;;;;;;;10.25;63.50;103535.75;5028890;28;20555;-84
2022/01/22 09:02:25;;;;;;;0.10;0.10;;;;;;;10.22;63.34;103541.00;5028777;28;20033;-85
2022/01/22 09:04:53;;;;;;;0.10;0.10;;;;;;;10.16;63.39;103536.44;5028471;28;20125;-85
2022/01/22 09:07:20;;;;;;;0.10;0.10;;;;;;;10.17;63.25;103540.88;5021249;28;20424;-84
2022/01/22 09:09:48;;;;;;;0.10;0.10;;;;;;;10.20;63.42;103540.06;5029417;28;20034;-84
2022/01/22 09:12:16;;;;;;;0.13;0.13;;;;;;;10.23;62.88;103545.44;5028991;28;20021;-85
2022/01/22 09:14:43;;;;;;;0.10;0.10;;;;;;;10.27;62.97;103542.00;5028061;28;20029;-85
2022/01/22 09:17:09;;;;;;;0.00;0.00;;;;;;;10.24;63.09;103552.50;5027756;28;20065;-89
2022/01/22 09:19:36;;;;;;;0.10;0.10;;;;;;;10.30;63.06;103544.72;5029281;28;20033;-85
2022/01/22 09:22:05;;;;;;;0.10;0.10;;;;;;;10.29;62.58;103556.19;5029957;28;20133;-83
2022/01/22 09:24:31;;;;;;;9.95;1.48;;;;;;;10.31;62.64;103564.19;5029922;28;20026;-84
2022/01/22 09:26:59;;;;;;;0.10;0.10;;;;;;;10.32;62.74;103560.69;5028279;28;20030;-84
2022/01/22 09:29:25;;;;;;;0.10;0.10;;;;;;;10.32;62.78;103560.69;5025885;28;20092;-84
2022/01/22 09:31:52;;;;;;;0.10;0.10;;;;;;;10.33;62.52;103567.75;5028947;28;20042;-84
2022/01/22 09:34:18;;;;;;;0.10;0.10;;;;;;;10.40;62.71;103563.53;5029310;28;20040;-81
2022/01/22 09:36:44;;;;;;;0.10;0.10;;;;;;;10.46;62.34;103571.66;5029514;28;20111;-82
2022/01/22 09:39:10;;;;;;;0.00;0.00;;;;;;;10.39;62.50;103582.94;5028956;28;20045;-82
2022/01/22 09:41:37;;;;;;;0.10;0.10;;;;;;;10.40;62.66;103580.34;5028943;28;20037;-85
2022/01/22 09:44:03;;;;;;;0.20;0.20;;;;;;;10.42;62.38;103575.06;5028779;28;20026;-84
2022/01/22 09:46:30;;;;;;;1.02;1.02;;;;;;;10.46;62.34;103584.91;5016441;28;20061;-83
2022/01/22 09:48:57;;;;;;;0.25;0.25;;;;;;;10.51;62.47;103596.50;5015579;28;20049;-82
2022/01/22 09:51:24;;;;;;;0.13;0.13;;;;;;;10.48;62.66;103604.38;5015893;28;20030;-86
2022/01/22 09:53:51;;;;;;;0.10;0.10;;;;;;;10.50;62.48;103595.63;5015602;28;20164;-86
2022/01/22 09:56:21;;;;;;;0.10;0.10;;;;;;;10.47;62.36;103592.00;5015522;28;20045;-86
2022/01/22 09:58:48;;;;;;;0.10;0.10;;;;;;;10.50;62.20;103592.06;5015442;28;20488;-86
2022/01/22 10:04:03;;;;;;;0.10;0.10;;;;;;;10.49;61.76;103599.13;5090380;27;20400;-85
2022/01/22 10:06:31;;;;;;;1.60;1.42;;;;;;;10.57;61.72;103594.00;5070256;28;20033;-85
2022/01/22 10:09:09;;;;;;;0.10;0.10;;;;;;;10.64;61.90;103590.66;5051698;28;20455;-85
2022/01/22 10:11:35;;;;;;;0.08;0.08;;;;;;;10.58;62.15;103600.19;5050269;28;20461;-86
2022/01/22 10:14:02;;;;;;;1.23;1.13;;;;;;;10.66;62.11;103598.63;5048701;28;20033;-85
2022/01/22 10:16:31;;;;;;;0.20;0.20;;;;;;;10.62;61.91;103608.28;5050247;28;20040;-85
2022/01/22 10:19:18;;;;;;;0.55;0.55;;;;;;;10.72;61.54;103609.41;5050040;28;20022;-85
2022/01/22 10:21:48;;;;;;;0.10;0.10;;;;;;;10.67;61.35;103611.94;5050430;28;20053;-85
2022/01/22 10:24:25;;;;;;;2.00;1.65;;;;;;;10.76;62.17;103610.38;5050645;28;20087;-85
2022/01/22 10:27:25;;;;;;;0.10;0.10;;;;;;;10.71;61.31;103606.72;5050372;28;20075;-85
2022/01/22 10:29:58;;;;;;;0.10;0.10;;;;;;;10.73;61.57;103607.63;5049766;28;20033;-85
2022/01/22 10:32:38;;;;;;;0.10;0.10;;;;;;;10.66;61.46;103612.78;5050249;28;20022;-85
2022/01/22 10:35:08;;;;;;;0.10;0.10;;;;;;;10.76;61.31;103605.94;5049494;28;20033;-85
2022/01/22 10:37:35;;;;;;;0.10;0.10;;;;;;;10.75;61.50;103611.22;5048500;28;20107;-85
2022/01/22 10:49:08;;;;;;;0.20;0.15;;;;;;;10.85;60.93;103607.91;5073955;27;20960;-85
2022/01/22 10:51:51;;;;;;;0.10;0.10;;;;;;;10.87;61.00;103608.84;5070364;28;20025;-86
2022/01/22 10:54:21;;;;;;;0.10;0.10;;;;;;;10.82;61.37;103606.09;5069783;28;20497;-86
2022/01/22 10:56:48;;;;;;;0.10;0.10;;;;;;;10.77;60.98;103606.84;5069899;28;20483;-86
2022/01/22 10:59:17;;;;;;;0.25;0.25;;;;;;;10.81;61.40;103603.41;5070205;28;20548;-85
2022/01/22 11:04:42;;;;;;;0.10;0.10;;;;;;;10.80;61.02;103596.31;5090491;27;20208;-85
2022/01/22 11:07:15;;;;;;;0.65;0.65;;;;;;;10.83;61.33;103601.69;5068277;28;20040;-85
2022/01/22 11:09:42;;;;;;;0.10;0.10;;;;;;;10.82;60.90;103597.25;5049865;28;20037;-85
2022/01/22 11:12:09;;;;;;;0.43;0.43;;;;;;;10.80;60.97;103597.22;5048841;28;20381;-85
2022/01/22 11:14:37;;;;;;;0.10;0.10;;;;;;;10.83;61.15;103591.97;5050015;28;20029;-85
2022/01/22 11:17:06;;;;;;;0.20;0.20;;;;;;;10.81;61.11;103592.81;5050272;28;20467;-85
2022/01/22 11:19:34;;;;;;;0.10;0.10;;;;;;;10.83;61.34;103588.44;5049947;28;20468;-85
2022/01/22 11:22:08;;;;;;;0.10;0.10;;;;;;;10.88;61.19;103589.44;5050249;28;20138;-85
2022/01/22 11:24:38;;;;;;;0.10;0.10;;;;;;;10.88;61.13;103594.75;5050083;28;20435;-85
2022/01/22 11:27:08;;;;;;;0.00;0.00;;;;;;;10.91;61.34;103600.09;5049823;28;20017;-85
2022/01/22 11:32:23;;;;;;;0.10;0.10;;;;;;;10.98;61.10;103607.34;5148610;27;20401;-85
2022/01/22 11:34:51;;;;;;;;;;;;;;;10.96;60.75;103609.06;5131853;27;20461;-85
2022/01/22 11:37:26;;;;;;;0.10;0.10;;;;;;;10.82;60.47;103605.19;5130711;28;20006;-86
2022/01/22 11:43:08;;;;;;;0.10;0.10;;;;;;;10.83;60.33;103607.00;5110927;27;20396;-87
2022/01/22 11:45:44;;;;;;;0.20;0.20;;;;;;;10.89;60.12;103609.81;5106054;28;20107;-87
2022/01/22 11:51:21;;;;;;;0.20;0.20;;;;;;;10.98;59.94;103612.66;5082507;27;20424;-86
2022/01/22 11:53:57;;;;;;;0.20;0.20;;;;;;;10.97;60.22;103600.25;5070221;28;20063;-86
2022/01/22 11:56:26;;;;;;;0.50;0.50;;;;;;;10.85;60.09;103602.59;5051921;28;20029;-86
2022/01/22 12:07:17;;;;;;;0.10;0.10;;;;;;;10.77;59.93;103596.25;5088030;27;20953;-85
2022/01/22 12:15:07;;;;;;;0.10;0.10;;;;;;;10.79;59.46;103600.72;5090380;27;20430;-86
2022/01/22 12:23:15;;;;;;;0.82;0.82;;;;;;;10.82;59.18;103584.00;5085305;27;20422;-86
2022/01/22 12:28:44;;;;;;;0.10;0.10;;;;;;;10.73;59.12;103578.44;5076682;27;20424;-86
2022/01/22 12:31:16;;;;;;;2.83;1.65;;;;;;;10.76;59.23;103576.78;5070564;28;20450;-86
2022/01/22 12:36:35;;;;;;;0.10;0.10;;;;;;;10.85;59.22;103589.34;5073254;27;20431;-86
2022/01/22 12:39:07;;;;;;;1.45;1.17;;;;;;;10.81;59.37;103583.06;5033564;28;20065;-86
2022/01/22 12:44:35;;;;;;;0.65;0.65;;;;;;;10.80;59.42;103591.00;5151855;27;20385;-86
2022/01/22 12:47:06;;;;;;;0.10;0.10;;;;;;;10.82;59.79;103589.28;5130180;28;20394;-86
2022/01/22 12:49:33;;;;;;;0.10;0.10;;;;;;;10.89;59.82;103580.63;5112084;27;20023;-86
2022/01/22 12:52:04;;;;;;;0.17;0.17;;;;;;;10.88;59.99;103584.13;5110794;28;20028;-86
2022/01/22 12:54:35;;;;;;;1.65;1.55;;;;;;;10.84;60.01;103592.84;5110272;28;20027;-86
2022/01/22 12:57:06;;;;;;;0.10;0.10;;;;;;;10.79;59.90;103597.16;5094700;28;20024;-86
2022/01/22 12:59:46;;;;;;;1.00;1.00;;;;;;;10.71;59.97;103590.81;5112426;28;20019;-86
2022/01/22 13:02:12;;;;;;;0.10;0.10;;;;;;;10.74;59.69;103593.50;5110005;28;20028;-86
2022/01/22 13:04:38;;;;;;;0.10;0.10;;;;;;;10.75;60.04;103593.53;5110043;28;20059;-86
2022/01/22 13:07:12;;;;;;;0.10;0.10;;;;;;;10.80;59.93;103591.00;5114931;28;20016;-86
2022/01/22 13:09:57;;;;;;;0.60;0.60;;;;;;;10.81;59.98;103587.50;5110077;28;20031;-86
2022/01/22 13:12:25;;;;;;;0.10;0.10;;;;;;;10.71;60.04;103590.81;5115500;28;20020;-87
2022/01/22 13:14:55;;;;;;;0.10;0.10;;;;;;;10.71;60.34;103590.81;5110268;28;20474;-87
2022/01/22 13:17:29;;;;;;;0.10;0.10;;;;;;;10.60;60.71;103602.03;5109538;28;20546;-87
2022/01/22 13:19:56;;;;;;;1.65;0.90;;;;;;;10.57;60.89;103606.38;5111974;28;20538;-87
2022/01/22 13:22:34;;;;;;;2.13;1.35;;;;;;;10.60;60.70;103599.38;5110028;28;20758;-86
2022/01/22 13:25:09;;;;;;;0.10;0.10;;;;;;;10.58;60.74;103594.88;5109137;28;20466;-86
2022/01/22 13:27:37;;;;;;;0.10;0.10;;;;;;;10.62;60.71;103602.97;5116545;28;20035;-86
2022/01/22 13:30:06;;;;;;;0.30;0.30;;;;;;;10.64;60.80;103600.34;5109852;28;20059;-86
2022/01/22 13:32:52;;;;;;;0.13;0.13;;;;;;;10.63;60.85;103599.47;5109495;28;20027;-87
2022/01/22 13:49:29;;;;;;;0.03;0.03;;;;;;;10.28;60.99;103612.72;5048309;28;20091;-87
2022/01/22 13:52:13;;;;;;;0.10;0.10;;;;;;;10.36;60.91;103608.50;5045845;28;20048;-87
2022/01/22 13:54:43;;;;;;;0.40;0.40;;;;;;;10.17;61.49;103617.72;5048577;28;20127;-87
2022/01/22 13:57:15;;;;;;;0.50;0.50;;;;;;;10.21;61.23;103613.41;5048644;28;20034;-88
2022/01/22 13:59:44;;;;;;;0.10;0.10;;;;;;;10.20;61.17;103611.59;5047692;28;20495;-87
2022/01/22 14:05:07;;;;;;;1.13;0.68;;;;;;;10.22;61.02;103620.50;5092124;27;20393;-84